createdAt,value
2018-03-22T00:00:40.947Z,69.17
2018-03-22T00:01:49.791Z,69.54
2018-03-22T00:02:58.630Z,69.64
2018-03-22T00:04:07.473Z,69.45
2018-03-22T00:05:16.312Z,69.45
2018-03-22T00:06:25.429Z,69.35
2018-03-22T00:07:34.266Z,69.35
2018-03-22T00:08:43.385Z,69.45
2018-03-22T00:09:52.229Z,69.35
2018-03-22T00:11:01.071Z,69.45
2018-03-22T00:12:10.442Z,69.35
2018-03-22T00:13:19.283Z,69.35
2018-03-22T00:14:28.124Z,69.54
2018-03-22T00:15:36.971Z,69.64
2018-03-22T00:16:45.805Z,69.35
2018-03-22T00:17:54.648Z,69.54
2018-03-22T00:19:03.492Z,69.26
2018-03-22T00:20:12.334Z,69.26
2018-03-22T00:21:21.452Z,69.54
2018-03-22T00:22:30.292Z,69.26
2018-03-22T00:23:39.185Z,69.26
2018-03-22T00:24:48.029Z,69.64
2018-03-22T00:25:57.148Z,69.26
2018-03-22T00:27:05.989Z,69.45
2018-03-22T00:28:14.884Z,69.45
2018-03-22T00:29:24.101Z,69.45
2018-03-22T00:30:33.222Z,69.45
2018-03-22T00:31:42.345Z,69.26
2018-03-22T00:32:51.196Z,69.26
2018-03-22T00:34:00.158Z,69.54
2018-03-22T00:35:09.387Z,69.35
2018-03-22T00:36:18.215Z,69.35
2018-03-22T00:37:27.606Z,69.45
2018-03-22T00:38:36.436Z,69.54
2018-03-22T00:39:45.267Z,69.82
2018-03-22T00:40:54.194Z,69.35
2018-03-22T00:42:03.021Z,69.35
2018-03-22T00:43:11.852Z,69.26
2018-03-22T00:44:20.683Z,69.45
2018-03-22T00:45:29.509Z,69.45
2018-03-22T00:46:38.488Z,69.35
2018-03-22T00:47:47.324Z,69.35
2018-03-22T00:48:56.426Z,69.35
2018-03-22T00:50:05.252Z,69.26
2018-03-22T00:51:14.365Z,69.35
2018-03-22T00:52:23.295Z,69.35
2018-03-22T00:53:32.127Z,69.45
2018-03-22T00:54:40.953Z,69.26
2018-03-22T00:55:49.782Z,69.64
2018-03-22T00:56:58.611Z,69.35
2018-03-22T00:58:07.539Z,69.64
2018-03-22T00:59:16.375Z,69.45
2018-03-22T01:00:25.201Z,69.45
2018-03-22T01:01:34.308Z,69.92
2018-03-22T01:02:43.138Z,69.73
2018-03-22T01:03:52.219Z,69.45
2018-03-22T01:05:01.045Z,69.54
2018-03-22T01:06:09.872Z,69.73
2018-03-22T01:07:18.700Z,69.82
2018-03-22T01:08:27.530Z,69.92
2018-03-22T01:09:36.651Z,69.92
2018-03-22T01:10:45.512Z,69.92
2018-03-22T01:11:54.312Z,69.64
2018-03-22T01:13:03.138Z,69.45
2018-03-22T01:14:11.969Z,69.73
2018-03-22T01:15:21.272Z,69.26
2018-03-22T01:16:30.099Z,69.17
2018-03-22T01:17:38.928Z,69.54
2018-03-22T01:18:47.755Z,68.88
2018-03-22T01:19:56.583Z,68.79
2018-03-22T01:21:05.786Z,68.5
2018-03-22T01:22:14.620Z,68.31
2018-03-22T01:23:24.279Z,68.21
2018-03-22T01:24:33.106Z,67.74
2018-03-22T01:25:41.935Z,67.93
2018-03-22T01:26:50.817Z,67.93
2018-03-22T01:27:59.644Z,67.27
2018-03-22T01:29:08.476Z,67.46
2018-03-22T01:30:17.303Z,66.99
2018-03-22T01:31:26.133Z,66.6
2018-03-22T01:32:35.011Z,65.94
2018-03-22T01:33:43.930Z,65.19
2018-03-22T01:34:52.759Z,65.37
2018-03-22T01:36:01.589Z,64.61
2018-03-22T01:37:10.417Z,63.39
2018-03-22T01:38:19.593Z,62.69
2018-03-22T01:39:28.695Z,62.02
2018-03-22T01:40:37.536Z,60.32
2018-03-22T01:41:46.421Z,59.28
2018-03-22T01:42:55.249Z,58.14
2018-03-22T01:44:04.127Z,57.1
2018-03-22T01:45:12.955Z,57.01
2018-03-22T01:46:21.804Z,55.87
2018-03-22T01:47:30.615Z,54.55
2018-03-22T01:48:39.441Z,53.13
2018-03-22T01:49:48.420Z,51.89
2018-03-22T01:50:57.525Z,50.19
2018-03-22T01:52:06.353Z,48.49
2018-03-22T01:53:15.182Z,46.88
2018-03-22T01:54:24.010Z,45.45
2018-03-22T01:55:32.885Z,44.6
2018-03-22T01:56:41.995Z,42.61
2018-03-22T01:57:50.822Z,41.38
2018-03-22T01:58:59.648Z,40.34
2018-03-22T02:00:08.475Z,39.68
2018-03-22T02:01:17.359Z,39.01
2018-03-22T02:02:26.194Z,38.73
2018-03-22T02:03:35.021Z,37.97
2018-03-22T02:04:43.849Z,37.21
2018-03-22T02:05:52.675Z,36.08
2018-03-22T02:07:01.803Z,35.6
2018-03-22T02:08:10.909Z,34.66
2018-03-22T02:09:19.738Z,33.71
2018-03-22T02:10:28.847Z,33.12
2018-03-22T02:11:37.957Z,32.75
2018-03-22T02:12:47.364Z,32.09
2018-03-22T02:13:56.189Z,31.9
2018-03-22T02:15:05.021Z,31.25
2018-03-22T02:16:14.133Z,30.85
2018-03-22T02:17:23.244Z,30.66
2018-03-22T02:18:32.219Z,30.76
2018-03-22T02:19:41.047Z,30.38
2018-03-22T02:20:49.875Z,30.1
2018-03-22T02:21:58.702Z,29.43
2018-03-22T02:23:07.532Z,29.24
2018-03-22T02:24:16.410Z,28.96
2018-03-22T02:25:25.520Z,28.58
2018-03-22T02:26:34.347Z,28.67
2018-03-22T02:27:43.174Z,28.3
2018-03-22T02:28:52.002Z,28.3
2018-03-22T02:30:00.886Z,28.3
2018-03-22T02:31:09.708Z,28.67
2018-03-22T02:32:18.539Z,27.92
2018-03-22T02:33:27.364Z,28.11
2018-03-22T02:34:36.193Z,28.3
2018-03-22T02:35:45.173Z,28.22
2018-03-22T02:36:54.002Z,28.13
2018-03-22T02:38:02.831Z,28.11
2018-03-22T02:39:11.661Z,27.92
2018-03-22T02:40:20.488Z,28.11
2018-03-22T02:41:29.469Z,27.73
2018-03-22T02:42:38.295Z,27.94
2018-03-22T02:43:47.125Z,27.84
2018-03-22T02:44:56.229Z,27.83
2018-03-22T02:46:05.346Z,27.56
2018-03-22T02:47:14.551Z,27.75
2018-03-22T02:48:23.378Z,27.73
2018-03-22T02:49:32.205Z,27.84
2018-03-22T02:50:41.311Z,27.64
2018-03-22T02:51:50.417Z,27.54
2018-03-22T02:52:59.295Z,27.45
2018-03-22T02:54:08.125Z,26.97
2018-03-22T02:55:16.996Z,26.97
2018-03-22T02:56:25.781Z,27.16
2018-03-22T02:57:35.164Z,26.97
2018-03-22T02:58:43.987Z,27.07
2018-03-22T02:59:52.818Z,26.12
2018-03-22T03:01:01.648Z,25.93
2018-03-22T03:02:10.473Z,25.56
2018-03-22T03:03:19.304Z,25.65
2018-03-22T03:04:28.384Z,25.37
2018-03-22T03:05:37.492Z,25.27
2018-03-22T03:06:46.592Z,24.8
2018-03-22T03:07:55.421Z,24.32
2018-03-22T03:09:04.253Z,24.04
2018-03-22T03:10:13.179Z,23.75
2018-03-22T03:11:22.007Z,23
2018-03-22T03:12:30.840Z,23
2018-03-22T03:13:39.668Z,22.81
2018-03-22T03:14:48.773Z,22.33
2018-03-22T03:15:57.602Z,22.14
2018-03-22T03:17:06.710Z,22.24
2018-03-22T03:18:15.536Z,21.58
2018-03-22T03:19:24.365Z,21.01
2018-03-22T03:20:33.195Z,20.06
2018-03-22T03:21:42.171Z,20.16
2018-03-22T03:22:51.001Z,19.59
2018-03-22T03:23:59.825Z,19.12
2018-03-22T03:25:08.653Z,18.65
2018-03-22T03:26:17.487Z,18.65
2018-03-22T03:27:26.308Z,17.98
2018-03-22T03:28:35.136Z,17.88
2018-03-22T03:29:43.964Z,18.07
2018-03-22T03:30:52.794Z,17.5
2018-03-22T03:32:01.618Z,17.6
2018-03-22T03:33:10.747Z,17.41
2018-03-22T03:34:19.579Z,17.22
2018-03-22T03:35:28.403Z,17.13
2018-03-22T03:36:37.230Z,16.94
2018-03-22T03:37:46.335Z,16.66
2018-03-22T03:38:55.359Z,16.66
2018-03-22T03:40:04.465Z,16.47
2018-03-22T03:41:13.292Z,16.28
2018-03-22T03:42:22.119Z,16.56
2018-03-22T03:43:30.947Z,16.09
2018-03-22T03:44:39.972Z,15.8
2018-03-22T03:45:48.799Z,15.8
2018-03-22T03:46:57.904Z,15.8
2018-03-22T03:48:06.731Z,15.8
2018-03-22T03:49:15.560Z,15.71
2018-03-22T03:50:24.813Z,15.42
2018-03-22T03:51:33.640Z,15.61
2018-03-22T03:52:42.469Z,15.61
2018-03-22T03:53:51.299Z,15.23
2018-03-22T03:55:00.128Z,15.33
2018-03-22T03:56:09.513Z,14.95
2018-03-22T03:57:18.349Z,14.29
2018-03-22T03:58:27.180Z,14.01
2018-03-22T03:59:36.002Z,14.1
2018-03-22T04:00:44.832Z,14.1
2018-03-22T04:01:53.909Z,14.2
2018-03-22T04:03:02.743Z,13.82
2018-03-22T04:04:11.570Z,14.01
2018-03-22T04:05:20.398Z,14.01
2018-03-22T04:06:29.224Z,14.1
2018-03-22T04:07:38.152Z,13.91
2018-03-22T04:08:46.980Z,14.01
2018-03-22T04:09:55.808Z,14.01
2018-03-22T04:11:04.641Z,13.44
2018-03-22T04:12:13.670Z,13.53
2018-03-22T04:13:22.799Z,13.63
2018-03-22T04:14:31.629Z,13.63
2018-03-22T04:15:40.457Z,13.25
2018-03-22T04:16:49.289Z,13.34
2018-03-22T04:17:58.116Z,13.34
2018-03-22T04:19:07.047Z,13.63
2018-03-22T04:20:15.879Z,13.06
2018-03-22T04:21:24.717Z,13.06
2018-03-22T04:22:33.536Z,13.34
2018-03-22T04:23:42.414Z,13.06
2018-03-22T04:24:51.623Z,13.25
2018-03-22T04:26:00.450Z,12.96
2018-03-22T04:27:09.276Z,12.96
2018-03-22T04:28:18.105Z,12.97
2018-03-22T04:29:26.936Z,12.87
2018-03-22T04:30:36.088Z,12.49
2018-03-22T04:31:44.914Z,12.5
2018-03-22T04:32:54.020Z,12.68
2018-03-22T04:34:02.849Z,12.78
2018-03-22T04:35:11.727Z,12.69
2018-03-22T04:36:20.605Z,12.68
2018-03-22T04:37:29.709Z,12.69
2018-03-22T04:38:38.543Z,12.59
2018-03-22T04:39:47.370Z,12.59
2018-03-22T04:40:56.197Z,12.69
2018-03-22T04:42:05.451Z,12.69
2018-03-22T04:43:14.555Z,12.59
2018-03-22T04:44:23.387Z,12.59
2018-03-22T04:45:32.491Z,12.59
2018-03-22T04:46:41.317Z,12.5
2018-03-22T04:47:50.471Z,12.59
2018-03-22T04:48:59.574Z,12.69
2018-03-22T04:50:08.402Z,12.5
2018-03-22T04:51:17.506Z,12.59
2018-03-22T04:52:26.336Z,12.59
2018-03-22T04:53:35.164Z,12.5
2018-03-22T04:54:43.991Z,12.5
2018-03-22T04:55:52.817Z,12.21
2018-03-22T04:57:01.646Z,12.21
2018-03-22T04:58:10.479Z,12.4
2018-03-22T04:59:19.374Z,12.4
2018-03-22T05:00:28.186Z,12.31
2018-03-22T05:01:37.079Z,12.31
2018-03-22T05:02:45.843Z,12.12
2018-03-22T05:03:54.677Z,12.21
2018-03-22T05:05:03.554Z,12.21
2018-03-22T05:06:12.385Z,12.12
2018-03-22T05:07:21.214Z,11.83
2018-03-22T05:08:30.323Z,11.55
2018-03-22T05:09:39.152Z,11.55
2018-03-22T05:10:48.412Z,11.46
2018-03-22T05:11:57.242Z,11.27
2018-03-22T05:13:06.071Z,11.65
2018-03-22T05:14:14.901Z,11.55
2018-03-22T05:15:24.009Z,11.55
2018-03-22T05:16:33.134Z,11.36
2018-03-22T05:17:41.961Z,11.17
2018-03-22T05:18:50.790Z,11.55
2018-03-22T05:19:59.620Z,11.46
2018-03-22T05:21:08.448Z,11.17
2018-03-22T05:22:17.429Z,11.27
2018-03-22T05:23:26.266Z,11.36
2018-03-22T05:24:35.086Z,11.08
2018-03-22T05:25:43.912Z,11.36
2018-03-22T05:26:52.742Z,11.27
2018-03-22T05:28:01.624Z,10.79
2018-03-22T05:29:10.734Z,10.89
2018-03-22T05:30:19.564Z,10.6
2018-03-22T05:31:28.400Z,10.79
2018-03-22T05:32:37.234Z,10.79
2018-03-22T05:33:46.261Z,10.7
2018-03-22T05:34:55.090Z,10.89
2018-03-22T05:36:03.920Z,10.7
2018-03-22T05:37:12.757Z,10.79
2018-03-22T05:38:21.578Z,10.79
2018-03-22T05:39:30.457Z,10.89
2018-03-22T05:40:39.286Z,10.51
2018-03-22T05:41:48.114Z,10.32
2018-03-22T05:42:56.940Z,10.32
2018-03-22T05:44:05.774Z,10.41
2018-03-22T05:45:15.052Z,10.32
2018-03-22T05:46:23.880Z,10.33
2018-03-22T05:47:32.714Z,10.03
2018-03-22T05:48:41.814Z,10.04
2018-03-22T05:49:50.640Z,10.14
2018-03-22T05:50:59.569Z,10.33
2018-03-22T05:52:08.399Z,9.94
2018-03-22T05:53:17.226Z,10.14
2018-03-22T05:54:26.059Z,10.14
2018-03-22T05:55:35.159Z,10.04
2018-03-22T05:56:44.040Z,10.04
2018-03-22T05:57:52.869Z,10.04
2018-03-22T05:59:01.696Z,9.94
2018-03-22T06:00:10.525Z,10.04
2018-03-22T06:01:19.355Z,10.33
2018-03-22T06:02:28.182Z,10.33
2018-03-22T06:03:37.019Z,10.33
2018-03-22T06:04:45.842Z,10.61
2018-03-22T06:05:54.953Z,10.33
2018-03-22T06:07:03.780Z,10.33
2018-03-22T06:08:12.911Z,10.42
2018-03-22T06:09:21.739Z,10.14
2018-03-22T06:10:30.569Z,10.42
2018-03-22T06:11:39.399Z,10.33
2018-03-22T06:12:48.226Z,10.52
2018-03-22T06:13:57.208Z,10.33
2018-03-22T06:15:06.038Z,10.33
2018-03-22T06:16:14.876Z,10.23
2018-03-22T06:17:23.719Z,10.52
2018-03-22T06:18:32.535Z,10.52
2018-03-22T06:19:41.513Z,10.71
2018-03-22T06:20:50.343Z,10.71
2018-03-22T06:21:59.457Z,10.8
2018-03-22T06:23:08.282Z,10.61
2018-03-22T06:24:17.120Z,10.71
2018-03-22T06:25:26.375Z,10.71
2018-03-22T06:26:35.311Z,10.61
2018-03-22T06:27:44.143Z,10.61
2018-03-22T06:28:52.980Z,10.23
2018-03-22T06:30:02.190Z,10.42
2018-03-22T06:31:11.037Z,10.33
2018-03-22T06:32:19.862Z,10.23
2018-03-22T06:33:28.690Z,10.04
2018-03-22T06:34:37.527Z,10.14
2018-03-22T06:35:46.631Z,9.94
2018-03-22T06:36:55.610Z,10.14
2018-03-22T06:38:04.440Z,10.14
2018-03-22T06:39:13.269Z,9.94
2018-03-22T06:40:22.105Z,10.14
2018-03-22T06:41:30.935Z,9.94
2018-03-22T06:42:40.164Z,10.33
2018-03-22T06:43:48.994Z,10.04
2018-03-22T06:44:57.824Z,9.94
2018-03-22T06:46:06.652Z,10.23
2018-03-22T06:47:15.773Z,10.04
2018-03-22T06:48:25.081Z,10.04
2018-03-22T06:49:34.246Z,9.94
2018-03-22T06:50:43.018Z,9.94
2018-03-22T06:51:52.123Z,9.94
2018-03-22T06:53:00.954Z,10.04
2018-03-22T06:54:10.156Z,9.94
2018-03-22T06:55:18.986Z,9.94
2018-03-22T06:56:27.817Z,9.94
2018-03-22T06:57:36.649Z,10.04
2018-03-22T06:58:45.477Z,10.04
2018-03-22T06:59:54.455Z,10.04
2018-03-22T07:01:03.287Z,9.94
2018-03-22T07:02:12.116Z,9.85
2018-03-22T07:03:20.942Z,10.04
2018-03-22T07:04:29.871Z,10.14
2018-03-22T07:05:38.799Z,9.94
2018-03-22T07:06:47.629Z,10.04
2018-03-22T07:07:56.465Z,10.04
2018-03-22T07:09:05.289Z,9.94
2018-03-22T07:10:14.122Z,9.85
2018-03-22T07:11:23.329Z,9.85
2018-03-22T07:12:32.158Z,9.38
2018-03-22T07:13:40.986Z,9.47
2018-03-22T07:14:49.816Z,9.47
2018-03-22T07:15:58.647Z,9.47
2018-03-22T07:17:07.624Z,9.38
2018-03-22T07:18:16.453Z,9.47
2018-03-22T07:19:25.304Z,9.38
2018-03-22T07:20:34.444Z,9.47
2018-03-22T07:21:43.274Z,9.47
2018-03-22T07:22:52.263Z,9.19
2018-03-22T07:24:01.039Z,9.38
2018-03-22T07:25:09.866Z,9.19
2018-03-22T07:26:18.695Z,9.28
2018-03-22T07:27:27.801Z,9.09
2018-03-22T07:28:36.886Z,9.19
2018-03-22T07:29:45.788Z,9.28
2018-03-22T07:30:54.618Z,9.28
2018-03-22T07:32:03.725Z,9.28
2018-03-22T07:33:12.555Z,9.09
2018-03-22T07:34:21.534Z,9.28
2018-03-22T07:35:30.686Z,9.19
2018-03-22T07:36:39.518Z,8.91
2018-03-22T07:37:48.352Z,9.28
2018-03-22T07:38:57.177Z,8.91
2018-03-22T07:40:06.166Z,8.91
2018-03-22T07:41:14.887Z,9
2018-03-22T07:42:23.718Z,9.09
2018-03-22T07:43:32.552Z,8.91
2018-03-22T07:44:41.665Z,9.29
2018-03-22T07:45:50.494Z,9.19
2018-03-22T07:46:59.331Z,9
2018-03-22T07:48:08.159Z,9.19
2018-03-22T07:49:17.267Z,9.19
2018-03-22T07:50:26.099Z,9.19
2018-03-22T07:51:35.307Z,8.91
2018-03-22T07:52:44.140Z,9.1
2018-03-22T07:53:53.528Z,8.81
2018-03-22T07:55:02.357Z,8.91
2018-03-22T07:56:11.185Z,9.1
2018-03-22T07:57:20.267Z,8.62
2018-03-22T07:58:29.093Z,8.72
2018-03-22T07:59:37.923Z,8.44
2018-03-22T08:00:46.754Z,8.34
2018-03-22T08:01:55.590Z,8.44
2018-03-22T08:03:04.476Z,8.34
2018-03-22T08:04:13.578Z,8.53
2018-03-22T08:05:22.407Z,8.34
2018-03-22T08:06:31.236Z,8.25
2018-03-22T08:07:40.068Z,8.15
2018-03-22T08:08:49.196Z,8.25
2018-03-22T08:09:58.026Z,7.77
2018-03-22T08:11:07.132Z,7.48
2018-03-22T08:12:15.963Z,7.39
2018-03-22T08:13:24.792Z,7.68
2018-03-22T08:14:33.821Z,7.29
2018-03-22T08:15:42.673Z,7.29
2018-03-22T08:16:51.578Z,7.39
2018-03-22T08:18:01.659Z,7.48
2018-03-22T08:19:10.574Z,7.29
2018-03-22T08:20:19.465Z,7.29
2018-03-22T08:21:28.335Z,7.29
2018-03-22T08:22:37.638Z,7.39
2018-03-22T08:23:46.748Z,7.68
2018-03-22T08:24:55.577Z,7.48
2018-03-22T08:26:05.064Z,7.58
2018-03-22T08:27:14.523Z,7.39
2018-03-22T08:28:23.376Z,7.39
2018-03-22T08:29:32.577Z,7.2
2018-03-22T08:30:41.658Z,7.39
2018-03-22T08:31:51.121Z,7.49
2018-03-22T08:33:00.234Z,7.3
2018-03-22T08:34:09.097Z,6.92
2018-03-22T08:35:18.445Z,6.63
2018-03-22T08:36:27.986Z,6.45
2018-03-22T08:37:37.184Z,6.26
2018-03-22T08:38:46.854Z,5.97
2018-03-22T08:39:56.483Z,5.78
2018-03-22T08:41:05.781Z,5.78
2018-03-22T08:42:14.957Z,5.59
2018-03-22T08:43:24.496Z,5.69
2018-03-22T08:44:33.566Z,5.4
2018-03-22T08:45:43.551Z,5.4
2018-03-22T08:46:52.978Z,5.31
2018-03-22T08:48:01.834Z,5.21
2018-03-22T08:49:11.195Z,5.12
2018-03-22T08:50:20.151Z,4.93
2018-03-22T08:51:29.213Z,4.93
2018-03-22T08:52:38.810Z,4.83
2018-03-22T08:53:47.859Z,4.83
2018-03-22T08:54:57.105Z,4.74
2018-03-22T08:56:06.474Z,4.74
2018-03-22T08:57:15.518Z,4.46
2018-03-22T08:58:24.824Z,4.55
2018-03-22T08:59:33.955Z,4.64
2018-03-22T09:00:42.990Z,4.46
2018-03-22T09:01:51.823Z,4.46
2018-03-22T09:03:00.943Z,4.36
2018-03-22T09:04:09.784Z,4.64
2018-03-22T09:05:18.640Z,4.64
2018-03-22T09:06:27.601Z,4.36
2018-03-22T09:07:36.590Z,4.74
2018-03-22T09:08:45.438Z,4.46
2018-03-22T09:09:54.593Z,4.36
2018-03-22T09:11:03.845Z,4.36
2018-03-22T09:12:12.818Z,4.36
2018-03-22T09:13:21.930Z,4.27
2018-03-22T09:14:30.763Z,4.17
2018-03-22T09:15:39.593Z,4.27
2018-03-22T09:16:48.431Z,4.27
2018-03-22T09:17:57.259Z,4.17
2018-03-22T09:19:06.109Z,4.17
2018-03-22T09:20:14.943Z,3.98
2018-03-22T09:21:23.777Z,4.17
2018-03-22T09:22:32.886Z,3.89
2018-03-22T09:23:41.720Z,4.08
2018-03-22T09:24:50.829Z,4.17
2018-03-22T09:25:59.658Z,4.27
2018-03-22T09:27:08.764Z,4.08
2018-03-22T09:28:17.596Z,3.89
2018-03-22T09:29:26.478Z,3.98
2018-03-22T09:30:35.311Z,3.98
2018-03-22T09:31:44.142Z,3.79
2018-03-22T09:32:52.975Z,3.79
2018-03-22T09:34:01.806Z,3.89
2018-03-22T09:35:10.787Z,3.79
2018-03-22T09:36:19.617Z,3.79
2018-03-22T09:37:28.457Z,3.6
2018-03-22T09:38:37.290Z,3.89
2018-03-22T09:39:46.398Z,3.7
2018-03-22T09:40:55.379Z,3.7
2018-03-22T09:42:04.210Z,3.6
2018-03-22T09:43:13.044Z,3.7
2018-03-22T09:44:21.875Z,3.51
2018-03-22T09:45:30.708Z,3.7
2018-03-22T09:46:39.593Z,3.32
2018-03-22T09:47:48.423Z,3.41
2018-03-22T09:48:57.254Z,3.7
2018-03-22T09:50:06.367Z,3.7
2018-03-22T09:51:15.233Z,3.51
2018-03-22T09:52:24.112Z,3.41
2018-03-22T09:53:32.962Z,3.22
2018-03-22T09:54:41.796Z,3.41
2018-03-22T09:55:50.626Z,3.41
2018-03-22T09:56:59.526Z,3.51
2018-03-22T09:58:08.441Z,3.51
2018-03-22T09:59:17.272Z,3.32
2018-03-22T10:00:26.378Z,3.41
2018-03-22T10:01:35.211Z,3.41
2018-03-22T10:02:44.046Z,3.79
2018-03-22T10:03:53.303Z,3.03
2018-03-22T10:05:02.137Z,3.03
2018-03-22T10:06:10.967Z,3.6
2018-03-22T10:07:19.816Z,3.32
2018-03-22T10:08:28.755Z,3.6
2018-03-22T10:09:37.835Z,4.55
2018-03-22T10:10:46.668Z,4.64
2018-03-22T10:11:55.500Z,3.89
2018-03-22T10:13:04.329Z,4.46
2018-03-22T10:14:13.162Z,4.17
2018-03-22T10:15:22.045Z,2.75
2018-03-22T10:16:30.877Z,3.6
2018-03-22T10:17:39.711Z,3.7
2018-03-22T10:18:48.544Z,3.98
2018-03-22T10:19:57.379Z,4.64
2018-03-22T10:21:06.364Z,5.02
2018-03-22T10:22:15.197Z,4.55
2018-03-22T10:23:24.030Z,4.55
2018-03-22T10:24:32.863Z,4.74
2018-03-22T10:25:41.698Z,5.32
2018-03-22T10:26:50.580Z,4.84
2018-03-22T10:27:59.413Z,5.12
2018-03-22T10:29:08.529Z,5.69
2018-03-22T10:30:17.358Z,6.93
2018-03-22T10:31:26.465Z,6.26
2018-03-22T10:32:35.447Z,6.36
2018-03-22T10:33:44.554Z,6.64
2018-03-22T10:34:53.386Z,6.83
2018-03-22T10:36:02.219Z,6.45
2018-03-22T10:37:11.058Z,6.26
2018-03-22T10:38:19.890Z,5.69
2018-03-22T10:39:28.721Z,4.65
2018-03-22T10:40:37.556Z,3.7
2018-03-22T10:41:46.385Z,3.13
2018-03-22T10:42:55.225Z,2.75
2018-03-22T10:44:04.092Z,3.13
2018-03-22T10:45:13.035Z,2.56
2018-03-22T10:46:21.866Z,2.84
2018-03-22T10:47:30.701Z,3.13
2018-03-22T10:48:39.814Z,3.13
2018-03-22T10:49:48.645Z,3.22
2018-03-22T10:50:57.478Z,3.13
2018-03-22T10:52:06.334Z,3.32
2018-03-22T10:53:15.242Z,3.13
2018-03-22T10:54:24.071Z,3.22
2018-03-22T10:55:33.225Z,3.22
2018-03-22T10:56:42.349Z,3.13
2018-03-22T10:57:51.320Z,2.84
2018-03-22T10:59:00.370Z,2.84
2018-03-22T11:00:09.276Z,3.22
2018-03-22T11:01:18.447Z,3.22
2018-03-22T11:02:27.452Z,2.66
2018-03-22T11:03:36.895Z,2.56
2018-03-22T11:04:45.783Z,2.56
2018-03-22T11:05:54.972Z,2.84
2018-03-22T11:07:03.864Z,2.94
2018-03-22T11:08:12.696Z,3.32
2018-03-22T11:09:21.532Z,3.22
2018-03-22T11:10:30.651Z,3.41
2018-03-22T11:11:39.484Z,3.7
2018-03-22T11:12:48.358Z,3.61
2018-03-22T11:13:57.816Z,3.32
2018-03-22T11:15:06.713Z,3.8
2018-03-22T11:16:16.067Z,3.8
2018-03-22T11:17:25.248Z,3.7
2018-03-22T11:18:34.604Z,3.7
2018-03-22T11:19:43.495Z,3.61
2018-03-22T11:20:52.441Z,3.7
2018-03-22T11:22:01.799Z,3.7
2018-03-22T11:23:11.233Z,3.7
2018-03-22T11:24:20.351Z,3.7
2018-03-22T11:25:29.262Z,3.89
2018-03-22T11:26:38.370Z,3.7
2018-03-22T11:27:47.487Z,3.41
2018-03-22T11:28:56.985Z,3.22
2018-03-22T11:30:06.396Z,2.47
2018-03-22T11:31:15.546Z,2.37
2018-03-22T11:32:25.175Z,2.37
2018-03-22T11:33:34.304Z,2.56
2018-03-22T11:34:43.677Z,2.75
2018-03-22T11:35:52.863Z,3.03
2018-03-22T11:37:02.251Z,3.13
2018-03-22T11:38:11.174Z,2.84
2018-03-22T11:39:20.098Z,2.56
2018-03-22T11:40:29.182Z,2.47
2018-03-22T11:41:38.328Z,1.99
2018-03-22T11:42:47.141Z,1.8
2018-03-22T11:43:56.240Z,1.8
2018-03-22T11:45:05.191Z,1.7
2018-03-22T11:46:14.032Z,1.42
2018-03-22T11:47:23.421Z,1.52
2018-03-22T11:48:32.291Z,1.52
2018-03-22T11:49:41.138Z,1.14
2018-03-22T11:50:50.254Z,0.95
2018-03-22T11:51:59.187Z,0.85
2018-03-22T11:53:08.796Z,0.76
2018-03-22T11:54:17.951Z,0.57
2018-03-22T11:57:05.914Z,0.66
2018-03-22T11:58:14.787Z,0.57
2018-03-22T11:59:24.341Z,0.57
2018-03-22T12:00:33.396Z,1.04
2018-03-22T12:01:42.256Z,0.76
2018-03-22T12:02:51.382Z,0.66
2018-03-22T12:04:00.289Z,0.66
2018-03-22T12:05:09.144Z,0.66
2018-03-22T12:07:56.592Z,0.38
2018-03-22T12:09:05.427Z,0.28
2018-03-22T12:10:14.261Z,0.57
2018-03-22T12:11:23.143Z,0.28
2018-03-22T12:12:31.990Z,0.76
2018-03-22T12:13:40.806Z,0.38
2018-03-22T12:14:49.640Z,0.28
2018-03-22T12:15:58.472Z,0.38
2018-03-22T12:17:07.605Z,0.57
2018-03-22T12:18:16.436Z,0.19
2018-03-22T12:19:25.274Z,0.38
2018-03-22T12:20:34.099Z,0.19
2018-03-22T12:21:42.941Z,0.47
2018-03-22T12:22:51.916Z,0.57
2018-03-22T12:24:00.755Z,0.47
2018-03-22T12:25:09.588Z,0.38
2018-03-22T12:26:18.418Z,0.66
2018-03-22T12:27:27.252Z,0.66
2018-03-22T12:28:36.411Z,0.57
2018-03-22T12:29:45.245Z,1.04
2018-03-22T12:30:54.351Z,0.85
2018-03-22T12:32:03.183Z,1.32
2018-03-22T12:33:12.289Z,1.23
2018-03-22T12:34:21.222Z,1.42
2018-03-22T12:35:30.055Z,1.42
2018-03-22T12:36:38.888Z,1.14
2018-03-22T12:37:47.725Z,0.85
2018-03-22T12:38:56.557Z,0.85
2018-03-22T12:40:05.439Z,0.85
2018-03-22T12:41:14.272Z,0.95
2018-03-22T12:42:23.207Z,0.85
2018-03-22T12:43:32.069Z,0.19
2018-03-22T12:44:40.888Z,0.09
2018-03-22T12:45:49.722Z,0
2018-03-22T12:46:58.559Z,0
2018-03-22T12:48:07.396Z,0
2018-03-22T12:49:16.228Z,0
2018-03-22T12:50:25.623Z,0
2018-03-22T12:51:34.456Z,0
2018-03-22T12:52:43.288Z,0
2018-03-22T12:53:52.421Z,0
2018-03-22T12:55:01.263Z,0
2018-03-22T12:56:10.095Z,0
2018-03-22T12:57:19.079Z,0
2018-03-22T12:58:27.912Z,0
2018-03-22T12:59:36.745Z,0.28
2018-03-22T13:00:45.581Z,0
2018-03-22T13:01:54.411Z,1.32
2018-03-22T13:03:03.296Z,1.42
2018-03-22T13:04:12.127Z,1.8
2018-03-22T13:05:20.964Z,1.71
2018-03-22T13:06:30.072Z,1.52
2018-03-22T13:07:38.912Z,1.32
2018-03-22T13:08:47.842Z,0
2018-03-22T13:09:56.674Z,0
2018-03-22T13:11:05.508Z,0
2018-03-22T13:12:14.614Z,0
2018-03-22T13:13:23.446Z,0.38
2018-03-22T13:14:32.859Z,2.37
2018-03-22T13:15:41.696Z,2.66
2018-03-22T13:16:50.810Z,3.23
2018-03-22T13:17:59.919Z,4.84
2018-03-22T13:19:08.763Z,3.61
2018-03-22T13:20:17.644Z,3.61
2018-03-22T13:21:26.472Z,4.36
2018-03-22T13:22:35.319Z,4.75
2018-03-22T13:23:44.445Z,5.51
2018-03-22T13:24:53.284Z,4.75
2018-03-22T13:26:02.267Z,4.56
2018-03-22T13:27:11.101Z,4.94
2018-03-22T13:28:19.935Z,4.75
2018-03-22T13:29:28.771Z,3.89
2018-03-22T13:30:37.608Z,3.13
2018-03-22T13:31:47.030Z,3.89
2018-03-22T13:32:55.865Z,5.98
2018-03-22T13:34:04.980Z,4.94
2018-03-22T13:35:13.815Z,3.7
2018-03-22T13:36:22.955Z,3.89
2018-03-22T13:37:32.194Z,6.84
2018-03-22T13:38:41.030Z,8.08
2018-03-22T13:39:49.868Z,9.03
2018-03-22T13:40:58.700Z,8.07
2018-03-22T13:42:07.540Z,8.45
2018-03-22T13:43:17.161Z,7.31
2018-03-22T13:44:26.024Z,9.12
2018-03-22T13:45:35.137Z,9.69
2018-03-22T13:46:43.973Z,12.45
2018-03-22T13:47:52.808Z,10.45
2018-03-22T13:49:02.072Z,10.36
2018-03-22T13:50:10.908Z,9.5
2018-03-22T13:51:19.743Z,8.45
2018-03-22T13:52:28.577Z,11.78
2018-03-22T13:53:37.411Z,13.59
2018-03-22T13:54:46.345Z,13.21
2018-03-22T13:55:55.179Z,11.3
2018-03-22T13:57:04.013Z,11.3
2018-03-22T13:58:12.844Z,9.41
2018-03-22T13:59:21.677Z,11.3
2018-03-22T14:00:30.608Z,11.5
2018-03-22T14:01:39.395Z,11.87
2018-03-22T14:02:48.509Z,9.97
2018-03-22T14:03:58.181Z,12.16
2018-03-22T14:05:07.014Z,12.54
2018-03-22T14:06:16.251Z,11.11
2018-03-22T14:07:25.363Z,12.73
2018-03-22T14:08:34.198Z,14.63
2018-03-22T14:09:43.027Z,14.54
2018-03-22T14:10:51.863Z,14.73
2018-03-22T14:12:00.746Z,14.63
2018-03-22T14:13:09.859Z,14.91
2018-03-22T14:14:18.971Z,11.68
2018-03-22T14:15:27.807Z,10.74
2018-03-22T14:16:36.643Z,12.54
2018-03-22T14:17:45.779Z,12.44
2018-03-22T14:18:54.613Z,16.15
2018-03-22T14:20:03.447Z,16.35
2018-03-22T14:21:12.283Z,15.58
2018-03-22T14:22:21.444Z,15.86
2018-03-22T14:23:30.363Z,15.67
2018-03-22T14:24:39.161Z,15.48
2018-03-22T14:25:47.994Z,18.24
2018-03-22T14:26:56.826Z,15.48
2018-03-22T14:28:05.657Z,16.24
2018-03-22T14:29:14.592Z,15.58
2018-03-22T14:30:23.426Z,17.57
2018-03-22T14:31:32.261Z,15
2018-03-22T14:32:41.093Z,17.86
2018-03-22T14:33:49.926Z,15.1
2018-03-22T14:34:59.099Z,14.43
2018-03-22T14:36:08.174Z,14.63
2018-03-22T14:37:17.008Z,17.86
2018-03-22T14:38:25.839Z,15.77
2018-03-22T14:39:34.673Z,12.35
2018-03-22T14:40:43.610Z,14.82
2018-03-22T14:41:52.720Z,18.05
2018-03-22T14:43:01.831Z,17.77
2018-03-22T14:44:10.665Z,16.72
2018-03-22T14:45:19.502Z,19.38
2018-03-22T14:46:28.389Z,22.14
2018-03-22T14:47:37.222Z,19.47
2018-03-22T14:48:46.329Z,19.37
2018-03-22T14:49:55.160Z,17.29
2018-03-22T14:51:03.995Z,14.43
2018-03-22T14:52:12.929Z,20.81
2018-03-22T14:53:22.109Z,22.24
2018-03-22T14:54:30.948Z,19.47
2018-03-22T14:55:39.782Z,19.28
2018-03-22T14:56:48.618Z,21.08
2018-03-22T14:57:57.700Z,18.62
2018-03-22T14:59:06.854Z,20.42
2018-03-22T15:00:16.067Z,22.8
2018-03-22T15:01:24.921Z,23.36
2018-03-22T15:02:33.737Z,20.23
2018-03-22T15:03:42.621Z,21.08
2018-03-22T15:04:51.454Z,18.71
2018-03-22T15:06:00.286Z,19.47
2018-03-22T15:07:09.119Z,17.2
2018-03-22T15:08:17.954Z,18.91
2018-03-22T15:09:26.837Z,16.62